createdAt,value
2022-12-12T00:02:42.971Z,97.68
2022-12-12T00:07:44.840Z,96.56
2022-12-12T00:12:46.705Z,97.53
2022-12-12T00:17:48.396Z,97.83
2022-12-12T00:22:50.122Z,98.21
2022-12-12T00:27:51.750Z,97.96
2022-12-12T00:32:53.378Z,99.46
2022-12-12T00:37:54.978Z,98.89
2022-12-12T00:42:56.593Z,99.75
2022-12-12T00:47:58.217Z,99.81
2022-12-12T00:52:59.870Z,100.00
2022-12-12T00:58:01.561Z,100.00
2022-12-12T01:03:03.453Z,100.00
2022-12-12T01:08:05.390Z,100.00
2022-12-12T01:13:07.221Z,100.00
2022-12-12T01:18:09.132Z,99.03
2022-12-12T01:23:11.196Z,98.65
2022-12-12T01:28:13.152Z,100.00
2022-12-12T01:33:14.800Z,99.49
2022-12-12T01:38:16.470Z,97.46
2022-12-12T01:43:19.822Z,97.50
2022-12-12T01:48:23.596Z,97.60
2022-12-12T01:53:27.032Z,99.23
2022-12-12T01:58:30.553Z,100.00
2022-12-12T02:03:32.795Z,98.31
2022-12-12T02:08:35.030Z,98.64
2022-12-12T02:13:37.096Z,98.60
2022-12-12T02:19:06.752Z,98.69
2022-12-12T02:24:26.225Z,99.10
2022-12-12T02:29:36.657Z,97.35
2022-12-12T02:34:51.358Z,99.25
2022-12-12T02:40:01.887Z,100.00
2022-12-12T02:45:14.925Z,100.00
2022-12-12T02:50:22.203Z,99.82
2022-12-12T02:55:23.890Z,100.00
2022-12-12T03:00:25.780Z,100.00
2022-12-12T03:06:02.585Z,100.00
2022-12-12T03:11:16.317Z,100.00
2022-12-12T03:16:38.529Z,100.00
2022-12-12T03:21:56.771Z,99.87
2022-12-12T03:27:13.485Z,99.36
2022-12-12T03:32:25.333Z,98.98
2022-12-12T03:37:33.757Z,98.71
2022-12-12T03:42:37.964Z,99.66
2022-12-12T03:47:51.728Z,99.57
2022-12-12T03:53:00.252Z,100.00
2022-12-12T03:58:14.480Z,99.30
2022-12-12T04:03:57.901Z,100.00
2022-12-12T04:09:27.032Z,97.90
2022-12-12T04:14:55.461Z,100.00
2022-12-12T04:20:22.584Z,100.00
2022-12-12T04:25:33.439Z,100.00
2022-12-12T04:30:36.126Z,100.00
2022-12-12T04:35:53.601Z,100.00
2022-12-12T04:40:59.422Z,100.00
2022-12-12T04:46:09.863Z,100.00
2022-12-12T04:51:16.644Z,100.00
2022-12-12T04:56:24.752Z,100.00
2022-12-12T05:01:35.129Z,100.00
2022-12-12T05:06:46.072Z,100.00
2022-12-12T05:11:48.778Z,100.00
2022-12-12T05:16:55.676Z,100.00
2022-12-12T05:21:57.326Z,100.00
2022-12-12T05:26:59.314Z,100.00
2022-12-12T05:32:01.160Z,100.00
2022-12-12T05:37:02.856Z,100.00
2022-12-12T05:42:04.646Z,100.00
2022-12-12T05:47:07.101Z,100.00
2022-12-12T05:52:08.798Z,100.00
2022-12-12T05:57:10.661Z,100.00
2022-12-12T06:02:13.384Z,100.00
2022-12-12T06:07:15.080Z,100.00
2022-12-12T06:12:16.779Z,100.00
2022-12-12T06:17:18.392Z,100.00
2022-12-12T06:22:20.001Z,100.00
2022-12-12T06:27:21.766Z,100.00
2022-12-12T06:32:23.511Z,100.00
2022-12-12T06:37:25.237Z,100.00
2022-12-12T06:42:27.016Z,100.00
2022-12-12T06:47:28.926Z,100.00
2022-12-12T06:52:31.223Z,100.00
2022-12-12T06:57:32.900Z,100.00
2022-12-12T07:02:34.680Z,100.00
2022-12-12T07:07:36.398Z,100.00
2022-12-12T07:12:38.067Z,100.00
2022-12-12T07:17:40.584Z,100.00
2022-12-12T07:22:42.983Z,100.00
2022-12-12T07:27:44.650Z,100.00
2022-12-12T07:32:46.277Z,100.00
2022-12-12T07:37:48.039Z,99.54
2022-12-12T07:42:50.088Z,99.13
2022-12-12T07:47:52.526Z,98.52
2022-12-12T07:52:55.440Z,97.57
2022-12-12T07:57:57.595Z,97.09
2022-12-12T08:02:59.262Z,97.64
2022-12-12T08:08:01.170Z,98.54
2022-12-12T08:13:10.926Z,97.59
2022-12-12T08:18:13.280Z,96.88
2022-12-12T08:23:14.995Z,95.36
2022-12-12T08:28:16.870Z,95.04
2022-12-12T08:33:23.141Z,95.89
2022-12-12T08:38:27.212Z,95.38
2022-12-12T08:43:29.185Z,95.76
2022-12-12T08:48:31.129Z,95.96
2022-12-12T08:53:32.930Z,96.22
2022-12-12T08:58:37.236Z,95.71
2022-12-12T09:03:39.012Z,96.59
2022-12-12T09:08:41.461Z,95.74
2022-12-12T09:13:43.980Z,94.84
2022-12-12T09:18:48.981Z,93.89
2022-12-12T09:23:51.000Z,94.68
2022-12-12T09:28:52.795Z,95.65
2022-12-12T09:33:54.421Z,93.43
2022-12-12T09:38:56.271Z,92.31
2022-12-12T09:44:03.604Z,91.18
2022-12-12T09:49:20.629Z,92.60
2022-12-12T09:54:25.879Z,93.69
2022-12-12T09:59:36.782Z,94.55
2022-12-12T10:04:50.821Z,93.19
2022-12-12T10:10:19.708Z,91.21
2022-12-12T10:15:32.817Z,90.86
2022-12-12T10:20:45.501Z,91.67
2022-12-12T10:25:54.473Z,93.36
2022-12-12T10:31:05.370Z,91.06
2022-12-12T10:36:42.334Z,93.28
2022-12-12T10:41:56.213Z,92.75
2022-12-12T10:46:58.005Z,92.94
2022-12-12T10:52:04.621Z,92.42
2022-12-12T10:57:20.660Z,91.78
2022-12-12T11:02:39.185Z,92.54
2022-12-12T11:07:44.282Z,93.59
2022-12-12T11:12:46.112Z,95.16
2022-12-12T11:17:50.065Z,94.08
2022-12-12T11:22:55.003Z,95.40
2022-12-12T11:28:06.332Z,96.01
2022-12-12T11:33:19.163Z,96.87
2022-12-12T11:38:26.603Z,95.82
2022-12-12T11:43:35.815Z,97.21
2022-12-12T11:48:57.789Z,97.83
2022-12-12T11:54:01.011Z,97.90
2022-12-12T11:59:33.752Z,99.77
2022-12-12T12:05:15.879Z,99.31
2022-12-12T12:10:49.647Z,99.40
2022-12-12T12:16:23.960Z,98.80
2022-12-12T12:21:29.684Z,100.00
2022-12-12T12:26:54.290Z,99.21
2022-12-12T12:32:22.717Z,98.40
2022-12-12T12:37:43.257Z,98.71
2022-12-12T12:43:13.060Z,98.26
2022-12-12T12:48:39.434Z,98.60
2022-12-12T12:53:51.564Z,99.08
2022-12-12T12:58:56.755Z,98.29
2022-12-12T13:04:05.646Z,98.71
2022-12-12T13:09:16.332Z,99.13
2022-12-12T13:14:43.254Z,100.00
2022-12-12T13:19:49.812Z,99.75
2022-12-12T13:25:27.073Z,99.92
2022-12-12T13:30:43.908Z,100.00
2022-12-12T13:35:54.508Z,100.00
2022-12-12T13:40:59.263Z,98.71
2022-12-12T13:46:24.696Z,99.85
2022-12-12T13:51:33.489Z,98.41
2022-12-12T13:57:06.315Z,96.98
2022-12-12T14:02:41.482Z,97.51
2022-12-12T14:07:52.802Z,96.90
2022-12-12T14:12:55.355Z,95.17
2022-12-12T14:18:02.652Z,94.11
2022-12-12T14:23:22.374Z,93.13
2022-12-12T14:28:25.448Z,94.52
2022-12-12T14:34:12.993Z,93.18
2022-12-12T14:39:35.708Z,90.64
2022-12-12T14:44:47.905Z,92.53
2022-12-12T14:50:09.262Z,92.78
2022-12-12T14:55:15.982Z,90.51
2022-12-12T15:00:19.411Z,90.79
2022-12-12T15:05:21.131Z,89.57
2022-12-12T15:10:29.241Z,88.73
2022-12-12T15:15:33.633Z,89.88
2022-12-12T15:20:35.779Z,88.66
2022-12-12T15:25:47.930Z,90.64
2022-12-12T15:30:53.370Z,89.59
2022-12-12T15:36:02.205Z,90.58
2022-12-12T15:41:12.697Z,91.39
2022-12-12T15:46:15.935Z,92.60
2022-12-12T15:51:24.745Z,92.88
2022-12-12T15:56:31.563Z,93.67
2022-12-12T16:01:33.368Z,93.61
2022-12-12T16:06:40.026Z,93.51
2022-12-12T16:11:48.745Z,94.00
2022-12-12T16:17:05.562Z,94.14
2022-12-12T16:22:43.490Z,93.57
2022-12-12T16:27:46.954Z,92.80
2022-12-12T16:32:48.706Z,93.18
2022-12-12T16:37:52.560Z,94.06
2022-12-12T16:43:06.177Z,90.96
2022-12-12T16:48:31.776Z,92.49
2022-12-12T16:53:34.183Z,92.08
2022-12-12T16:58:36.456Z,92.67
2022-12-12T17:03:38.279Z,92.86
2022-12-12T17:08:40.024Z,92.55
2022-12-12T17:13:47.958Z,91.05
2022-12-12T17:18:49.644Z,91.53
2022-12-12T17:23:51.339Z,90.67
2022-12-12T17:28:53.098Z,92.54
2022-12-12T17:33:55.355Z,91.59
2022-12-12T17:38:57.034Z,90.45
2022-12-12T17:43:58.967Z,90.23
2022-12-12T17:49:02.026Z,91.78
2022-12-12T17:54:03.926Z,88.53
2022-12-12T17:59:08.359Z,89.58
2022-12-12T18:04:11.576Z,90.17
2022-12-12T18:09:14.506Z,91.50
2022-12-12T18:14:18.616Z,89.46
2022-12-12T18:19:22.065Z,90.03
2022-12-12T18:24:25.181Z,89.96
2022-12-12T18:29:27.313Z,89.30
2022-12-12T18:34:29.060Z,88.73
2022-12-12T18:39:30.693Z,88.37
2022-12-12T18:44:32.444Z,89.42
2022-12-12T18:49:34.153Z,88.97
2022-12-12T18:54:36.115Z,89.59
2022-12-12T18:59:37.841Z,89.93
2022-12-12T19:04:39.662Z,88.31
2022-12-12T19:09:41.576Z,89.38
2022-12-12T19:15:15.087Z,88.25
2022-12-12T19:20:05.494Z,89.23
2022-12-12T19:25:09.808Z,90.29
2022-12-12T19:30:13.948Z,89.48
2022-12-12T19:35:16.663Z,89.47
2022-12-12T19:40:18.994Z,89.70
2022-12-12T19:45:20.776Z,89.30
2022-12-12T19:50:22.425Z,89.06
2022-12-12T19:55:24.722Z,89.98
2022-12-12T20:00:26.706Z,90.72
2022-12-12T20:05:28.662Z,90.69
2022-12-12T20:10:30.393Z,90.77
2022-12-12T20:15:32.245Z,90.53
2022-12-12T20:20:34.043Z,90.80
2022-12-12T20:25:40.311Z,90.35
2022-12-12T20:30:42.017Z,90.72
2022-12-12T20:35:43.760Z,91.18
2022-12-12T20:40:45.455Z,90.41
2022-12-12T20:45:47.232Z,89.42
2022-12-12T20:50:49.432Z,88.88
2022-12-12T20:55:51.234Z,90.41
2022-12-12T21:00:52.957Z,89.01
2022-12-12T21:05:54.632Z,89.30
2022-12-12T21:10:56.305Z,89.73
2022-12-12T21:15:59.238Z,89.58
2022-12-12T21:21:01.123Z,90.21
2022-12-12T21:26:08.425Z,89.52
2022-12-12T21:31:11.090Z,89.57
2022-12-12T21:36:16.010Z,90.61
2022-12-12T21:41:20.416Z,91.25
2022-12-12T21:46:24.336Z,91.18
2022-12-12T21:51:26.108Z,90.44
2022-12-12T21:56:27.937Z,90.68
2022-12-12T22:01:29.830Z,90.94
2022-12-12T22:06:34.032Z,91.32
2022-12-12T22:11:42.248Z,90.97
2022-12-12T22:17:02.116Z,91.23
2022-12-12T22:22:03.878Z,90.46
2022-12-12T22:27:05.572Z,91.05
2022-12-12T22:32:07.267Z,89.91
2022-12-12T22:37:08.875Z,89.91
2022-12-12T22:42:10.560Z,89.22
2022-12-12T22:47:12.460Z,89.55
2022-12-12T22:52:14.651Z,88.09
2022-12-12T22:57:26.069Z,87.92
2022-12-12T23:02:33.883Z,87.83
2022-12-12T23:07:35.644Z,88.34
2022-12-12T23:12:39.978Z,87.81
2022-12-12T23:17:41.689Z,88.38
2022-12-12T23:22:46.378Z,88.11
2022-12-12T23:27:48.308Z,86.67
2022-12-12T23:32:50.952Z,87.04
2022-12-12T23:37:52.595Z,86.46
2022-12-12T23:42:54.300Z,86.00
2022-12-12T23:47:55.924Z,85.20
2022-12-12T23:52:58.107Z,84.51
2022-12-12T23:57:59.781Z,83.52
